sensor_id;sensor_type;location;lat;lon;timestamp;pressure;altitude;pressure_sealevel;temperature;humidity
46718;BME280;32448;44.960;-0.698;2023-09-30T00:02:12;102358.16;;;16.69;100.00
46718;BME280;32448;44.960;-0.698;2023-09-30T00:04:46;102365.09;;;16.62;100.00
46718;BME280;32448;44.960;-0.698;2023-09-30T00:07:15;102366.84;;;16.62;100.00
46718;BME280;32448;44.960;-0.698;2023-09-30T00:09:42;102377.50;;;16.66;100.00
46718;BME280;32448;44.960;-0.698;2023-09-30T00:12:10;102366.78;;;16.60;100.00
46718;BME280;32448;44.960;-0.698;2023-09-30T00:14:37;102377.22;;;16.53;100.00
46718;BME280;32448;44.960;-0.698;2023-09-30T00:17:05;102379.84;;;16.53;100.00
46718;BME280;32448;44.960;-0.698;2023-09-30T00:19:33;102379.78;;;16.50;100.00
46718;BME280;32448;44.960;-0.698;2023-09-30T00:22:00;102369.00;;;16.37;100.00
46718;BME280;32448;44.960;-0.698;2023-09-30T00:24:27;102380.72;;;16.52;100.00
46718;BME280;32448;44.960;-0.698;2023-09-30T00:26:55;102392.06;;;16.48;100.00
46718;BME280;32448;44.960;-0.698;2023-09-30T00:29:23;102379.63;;;16.41;100.00
46718;BME280;32448;44.960;-0.698;2023-09-30T00:31:50;102380.53;;;16.43;100.00
46718;BME280;32448;44.960;-0.698;2023-09-30T00:34:18;102378.63;;;16.35;100.00
46718;BME280;32448;44.960;-0.698;2023-09-30T00:36:45;102378.63;;;16.35;100.00
46718;BME280;32448;44.960;-0.698;2023-09-30T00:39:13;102374.22;;;16.33;100.00
46718;BME280;32448;44.960;-0.698;2023-09-30T00:41:41;102372.47;;;16.33;100.00
46718;BME280;32448;44.960;-0.698;2023-09-30T00:44:08;102372.50;;;16.36;100.00
46718;BME280;32448;44.960;-0.698;2023-09-30T00:46:38;102354.72;;;16.26;100.00
46718;BME280;32448;44.960;-0.698;2023-09-30T00:49:08;102379.53;;;16.34;100.00
46718;BME280;32448;44.960;-0.698;2023-09-30T00:51:37;102372.47;;;16.33;100.00
46718;BME280;32448;44.960;-0.698;2023-09-30T00:54:05;102375.13;;;16.36;100.00
46718;BME280;32448;44.960;-0.698;2023-09-30T00:56:33;102368.03;;;16.32;100.00
46718;BME280;32448;44.960;-0.698;2023-09-30T00:59:03;102338.75;;;16.19;100.00
46718;BME280;32448;44.960;-0.698;2023-09-30T01:01:30;102357.28;;;16.22;100.00
46718;BME280;32448;44.960;-0.698;2023-09-30T01:03:58;102358.19;;;16.22;100.00
46718;BME280;32448;44.960;-0.698;2023-09-30T01:06:26;102354.56;;;16.19;100.00
46718;BME280;32448;44.960;-0.698;2023-09-30T01:08:54;102349.09;;;16.08;100.00
46718;BME280;32448;44.960;-0.698;2023-09-30T01:11:21;102355.28;;;16.10;100.00
46718;BME280;32448;44.960;-0.698;2023-09-30T01:13:49;102355.16;;;16.04;100.00
46718;BME280;32448;44.960;-0.698;2023-09-30T01:16:16;102362.13;;;16.00;100.00
46718;BME280;32448;44.960;-0.698;2023-09-30T01:18:43;102347.91;;;15.94;100.00
46718;BME280;32448;44.960;-0.698;2023-09-30T01:21:11;102338.22;;;15.93;100.00
46718;BME280;32448;44.960;-0.698;2023-09-30T01:23:40;102332.88;;;15.88;100.00
46718;BME280;32448;44.960;-0.698;2023-09-30T01:26:10;102329.47;;;15.94;100.00
46718;BME280;32448;44.960;-0.698;2023-09-30T01:28:39;102337.25;;;15.88;100.00
46718;BME280;32448;44.960;-0.698;2023-09-30T01:31:07;102331.03;;;15.84;100.00
46718;BME280;32448;44.960;-0.698;2023-09-30T01:33:35;102338.91;;;15.83;100.00
46718;BME280;32448;44.960;-0.698;2023-09-30T01:36:02;102341.56;;;15.84;100.00
46718;BME280;32448;44.960;-0.698;2023-09-30T01:38:30;102344.25;;;15.86;100.00
46718;BME280;32448;44.960;-0.698;2023-09-30T01:40:57;102350.38;;;15.85;100.00
46718;BME280;32448;44.960;-0.698;2023-09-30T01:43:27;102341.47;;;15.78;100.00
46718;BME280;32448;44.960;-0.698;2023-09-30T01:45:55;102345.00;;;15.79;100.00
46718;BME280;32448;44.960;-0.698;2023-09-30T01:48:22;102334.44;;;15.79;100.00
46718;BME280;32448;44.960;-0.698;2023-09-30T01:50:51;102324.72;;;15.76;100.00
46718;BME280;32448;44.960;-0.698;2023-09-30T01:53:19;102323.69;;;15.70;100.00
46718;BME280;32448;44.960;-0.698;2023-09-30T01:55:46;102327.91;;;15.61;100.00
46718;BME280;32448;44.960;-0.698;2023-09-30T01:58:14;102327.16;;;15.67;100.00
46718;BME280;32448;44.960;-0.698;2023-09-30T02:00:42;102335.09;;;15.69;100.00
46718;BME280;32448;44.960;-0.698;2023-09-30T02:03:09;102336.75;;;15.63;100.00
46718;BME280;32448;44.960;-0.698;2023-09-30T02:05:38;102339.41;;;15.65;100.00
46718;BME280;32448;44.960;-0.698;2023-09-30T02:08:06;102333.09;;;15.57;100.00
46718;BME280;32448;44.960;-0.698;2023-09-30T02:10:33;102326.09;;;15.59;100.00
46718;BME280;32448;44.960;-0.698;2023-09-30T02:13:01;102327.91;;;15.61;100.00
46718;BME280;32448;44.960;-0.698;2023-09-30T02:15:29;102312.91;;;15.57;100.00
46718;BME280;32448;44.960;-0.698;2023-09-30T02:17:57;102309.28;;;15.54;100.00
46718;BME280;32448;44.960;-0.698;2023-09-30T02:20:24;102321.63;;;15.55;100.00
46718;BME280;32448;44.960;-0.698;2023-09-30T02:22:53;102312.66;;;15.48;100.00
46718;BME280;32448;44.960;-0.698;2023-09-30T02:25:21;102303.94;;;15.51;100.00
46718;BME280;32448;44.960;-0.698;2023-09-30T02:27:50;102302.97;;;15.47;100.00
46718;BME280;32448;44.960;-0.698;2023-09-30T02:30:17;102317.28;;;15.58;100.00
46718;BME280;32448;44.960;-0.698;2023-09-30T02:32:44;102312.03;;;15.58;100.00
46718;BME280;32448;44.960;-0.698;2023-09-30T02:35:13;102309.38;;;15.58;100.00
46718;BME280;32448;44.960;-0.698;2023-09-30T02:37:42;102293.31;;;15.46;100.00
46718;BME280;32448;44.960;-0.698;2023-09-30T02:40:10;102305.72;;;15.52;100.00
46718;BME280;32448;44.960;-0.698;2023-09-30T02:42:39;102295.91;;;15.45;100.00
46718;BME280;32448;44.960;-0.698;2023-09-30T02:45:08;102307.34;;;15.47;100.00
46718;BME280;32448;44.960;-0.698;2023-09-30T02:47:36;102299.31;;;15.41;100.00
46718;BME280;32448;44.960;-0.698;2023-09-30T02:50:08;102292.81;;;15.23;100.00
46718;BME280;32448;44.960;-0.698;2023-09-30T02:52:39;102305.28;;;15.32;100.00
46718;BME280;32448;44.960;-0.698;2023-09-30T02:55:11;102302.69;;;15.34;100.00
46718;BME280;32448;44.960;-0.698;2023-09-30T02:57:39;102295.81;;;15.40;100.00
46718;BME280;32448;44.960;-0.698;2023-09-30T03:00:08;102293.09;;;15.37;100.00
46718;BME280;32448;44.960;-0.698;2023-09-30T03:02:54;102262.88;;;15.20;100.00
46718;BME280;32448;44.960;-0.698;2023-09-30T03:05:22;102272.50;;;15.19;100.00
46718;BME280;32448;44.960;-0.698;2023-09-30T03:07:54;102269.88;;;15.19;100.00
46718;BME280;32448;44.960;-0.698;2023-09-30T03:10:22;102306.19;;;15.33;100.00
46718;BME280;32448;44.960;-0.698;2023-09-30T03:12:54;102316.59;;;15.28;100.00
46718;BME280;32448;44.960;-0.698;2023-09-30T03:15:21;102316.66;;;15.29;100.00
46718;BME280;32448;44.960;-0.698;2023-09-30T03:17:49;102304.28;;;15.27;100.00
46718;BME280;32448;44.960;-0.698;2023-09-30T03:20:19;102292.97;;;15.31;100.00
46718;BME280;32448;44.960;-0.698;2023-09-30T03:22:47;102289.28;;;15.24;100.00
46718;BME280;32448;44.960;-0.698;2023-09-30T03:25:18;102292.66;;;15.17;100.00
46718;BME280;32448;44.960;-0.698;2023-09-30T03:27:46;102291.69;;;15.14;100.00
46718;BME280;32448;44.960;-0.698;2023-09-30T03:30:14;102279.41;;;15.14;100.00
46718;BME280;32448;44.960;-0.698;2023-09-30T03:32:43;102300.56;;;15.17;100.00
46718;BME280;32448;44.960;-0.698;2023-09-30T03:35:11;102274.63;;;14.97;100.00
46718;BME280;32448;44.960;-0.698;2023-09-30T03:37:49;102294.06;;;15.02;100.00
46718;BME280;32448;44.960;-0.698;2023-09-30T03:40:17;102294.03;;;15.00;100.00
46718;BME280;32448;44.960;-0.698;2023-09-30T03:42:57;102303.81;;;15.06;100.00
46718;BME280;32448;44.960;-0.698;2023-09-30T03:45:24;102299.47;;;15.08;100.00
46718;BME280;32448;44.960;-0.698;2023-09-30T03:47:51;102302.91;;;15.05;100.00
46718;BME280;32448;44.960;-0.698;2023-09-30T03:50:21;102306.34;;;15.01;100.00
46718;BME280;32448;44.960;-0.698;2023-09-30T03:52:50;102282.31;;;14.87;100.00
46718;BME280;32448;44.960;-0.698;2023-09-30T03:55:20;102298.53;;;15.06;100.00
46718;BME280;32448;44.960;-0.698;2023-09-30T03:57:49;102300.19;;;15.01;100.00
46718;BME280;32448;44.960;-0.698;2023-09-30T04:00:19;102307.25;;;15.02;100.00
46718;BME280;32448;44.960;-0.698;2023-09-30T04:02:56;102315.06;;;14.99;100.00
46718;BME280;32448;44.960;-0.698;2023-09-30T04:05:26;102310.66;;;14.98;100.00
46718;BME280;32448;44.960;-0.698;2023-09-30T04:07:57;102308.81;;;14.95;100.00
46718;BME280;32448;44.960;-0.698;2023-09-30T04:10:24;102313.97;;;14.89;100.00
46718;BME280;32448;44.960;-0.698;2023-09-30T04:12:52;102321.91;;;14.90;100.00
46718;BME280;32448;44.960;-0.698;2023-09-30T04:15:19;102322.78;;;14.91;100.00
46718;BME280;32448;44.960;-0.698;2023-09-30T04:17:48;102296.13;;;14.77;100.00
46718;BME280;32448;44.960;-0.698;2023-09-30T04:20:16;102311.28;;;14.87;100.00
46718;BME280;32448;44.960;-0.698;2023-09-30T04:22:45;102285.44;;;14.71;100.00
46718;BME280;32448;44.960;-0.698;2023-09-30T04:25:17;102318.38;;;14.90;100.00
46718;BME280;32448;44.960;-0.698;2023-09-30T04:27:46;102308.53;;;14.83;100.00
46718;BME280;32448;44.960;-0.698;2023-09-30T04:30:16;102319.06;;;14.83;100.00
46718;BME280;32448;44.960;-0.698;2023-09-30T04:32:45;102308.34;;;14.75;100.00
46718;BME280;32448;44.960;-0.698;2023-09-30T04:35:12;102326.69;;;14.72;100.00
46718;BME280;32448;44.960;-0.698;2023-09-30T04:37:49;102315.97;;;14.65;100.00
46718;BME280;32448;44.960;-0.698;2023-09-30T04:40:18;102318.66;;;14.66;100.00
46718;BME280;32448;44.960;-0.698;2023-09-30T04:42:49;102291.94;;;14.51;100.00
46718;BME280;32448;44.960;-0.698;2023-09-30T04:45:16;102328.38;;;14.69;100.00
46718;BME280;32448;44.960;-0.698;2023-09-30T04:47:47;102323.91;;;14.66;100.00
46718;BME280;32448;44.960;-0.698;2023-09-30T04:50:18;102314.38;;;14.71;100.00
46718;BME280;32448;44.960;-0.698;2023-09-30T04:52:52;102310.94;;;14.74;100.00
46718;BME280;32448;44.960;-0.698;2023-09-30T04:55:20;102312.69;;;14.73;100.00
46718;BME280;32448;44.960;-0.698;2023-09-30T04:57:48;102302.16;;;14.73;100.00
46718;BME280;32448;44.960;-0.698;2023-09-30T05:03:15;102305.16;;;14.88;100.00
46718;BME280;32448;44.960;-0.698;2023-09-30T05:05:42;102316.59;;;14.89;100.00
46718;BME280;32448;44.960;-0.698;2023-09-30T05:08:09;102303.22;;;14.81;100.00
46718;BME280;32448;44.960;-0.698;2023-09-30T05:10:38;102308.59;;;14.86;100.00
46718;BME280;32448;44.960;-0.698;2023-09-30T05:13:05;102312.31;;;14.94;100.00
46718;BME280;32448;44.960;-0.698;2023-09-30T05:15:32;102317.66;;;14.97;100.00
46718;BME280;32448;44.960;-0.698;2023-09-30T05:18:02;102310.66;;;14.98;100.00
46718;BME280;32448;44.960;-0.698;2023-09-30T05:20:31;102302.78;;;14.99;100.00
46718;BME280;32448;44.960;-0.698;2023-09-30T05:22:59;102299.09;;;14.91;100.00
46718;BME280;32448;44.960;-0.698;2023-09-30T05:25:26;102311.56;;;15.00;100.00
46718;BME280;32448;44.960;-0.698;2023-09-30T05:27:54;102335.44;;;15.07;100.00
46718;BME280;32448;44.960;-0.698;2023-09-30T05:30:22;102316.88;;;15.01;100.00
46718;BME280;32448;44.960;-0.698;2023-09-30T05:32:49;102331.19;;;15.14;100.00
46718;BME280;32448;44.960;-0.698;2023-09-30T05:35:19;102334.94;;;15.22;100.00
46718;BME280;32448;44.960;-0.698;2023-09-30T05:37:49;102322.31;;;15.09;100.00
46718;BME280;32448;44.960;-0.698;2023-09-30T05:40:20;102345.50;;;15.23;100.00
46718;BME280;32448;44.960;-0.698;2023-09-30T05:42:57;102337.59;;;15.25;100.00
46718;BME280;32448;44.960;-0.698;2023-09-30T05:45:27;102342.03;;;15.26;100.00
46718;BME280;32448;44.960;-0.698;2023-09-30T05:47:57;102324.34;;;15.20;100.00
46718;BME280;32448;44.960;-0.698;2023-09-30T05:50:29;102336.78;;;15.27;100.00
46718;BME280;32448;44.960;-0.698;2023-09-30T05:52:57;102352.88;;;15.40;100.00
46718;BME280;32448;44.960;-0.698;2023-09-30T05:55:24;102349.38;;;15.41;100.00
46718;BME280;32448;44.960;-0.698;2023-09-30T05:57:53;102340.66;;;15.43;100.00
46718;BME280;32448;44.960;-0.698;2023-09-30T06:00:22;102347.00;;;15.51;100.00
46718;BME280;32448;44.960;-0.698;2023-09-30T06:03:01;102334.56;;;15.44;100.00
46718;BME280;32448;44.960;-0.698;2023-09-30T06:05:32;102343.34;;;15.45;100.00
46718;BME280;32448;44.960;-0.698;2023-09-30T06:08:04;102347.88;;;15.52;100.00
46718;BME280;32448;44.960;-0.698;2023-09-30T06:10:32;102354.16;;;15.55;100.00
46718;BME280;32448;44.960;-0.698;2023-09-30T06:13:00;102359.31;;;15.52;100.00
46718;BME280;32448;44.960;-0.698;2023-09-30T06:15:28;102363.88;;;15.59;100.00
46718;BME280;32448;44.960;-0.698;2023-09-30T06:17:56;102360.34;;;15.57;100.00
46718;BME280;32448;44.960;-0.698;2023-09-30T06:20:26;102359.53;;;15.61;100.00
46718;BME280;32448;44.960;-0.698;2023-09-30T06:22:55;102365.81;;;15.67;100.00
46718;BME280;32448;44.960;-0.698;2023-09-30T06:25:23;102368.53;;;15.71;100.00
46718;BME280;32448;44.960;-0.698;2023-09-30T06:27:57;102362.34;;;15.68;100.00
46718;BME280;32448;44.960;-0.698;2023-09-30T06:30:24;102366.88;;;15.75;100.00
46718;BME280;32448;44.960;-0.698;2023-09-30T06:32:58;102361.59;;;15.75;100.00
46718;BME280;32448;44.960;-0.698;2023-09-30T06:35:32;102356.22;;;15.70;100.00
46718;BME280;32448;44.960;-0.698;2023-09-30T06:38:08;102368.84;;;15.85;100.00
46718;BME280;32448;44.960;-0.698;2023-09-30T06:40:35;102361.88;;;15.88;100.00
46718;BME280;32448;44.960;-0.698;2023-09-30T06:43:06;102366.31;;;15.91;100.00
46718;BME280;32448;44.960;-0.698;2023-09-30T06:45:36;102368.09;;;15.92;100.00
46718;BME280;32448;44.960;-0.698;2023-09-30T06:48:09;102333.63;;;15.83;100.00
46718;BME280;32448;44.960;-0.698;2023-09-30T06:50:44;102378.06;;;16.07;100.00
46718;BME280;32448;44.960;-0.698;2023-09-30T06:53:11;102377.28;;;16.11;100.00
46718;BME280;32448;44.960;-0.698;2023-09-30T06:55:39;102374.66;;;16.11;100.00
46718;BME280;32448;44.960;-0.698;2023-09-30T06:58:10;102368.53;;;16.12;100.00
46718;BME280;32448;44.960;-0.698;2023-09-30T07:00:38;102377.47;;;16.20;100.00
46718;BME280;32448;44.960;-0.698;2023-09-30T07:03:05;102364.25;;;16.18;100.00
46718;BME280;32448;44.960;-0.698;2023-09-30T07:05:32;102371.47;;;16.28;100.00
46718;BME280;32448;44.960;-0.698;2023-09-30T07:08:00;102389.25;;;16.38;100.00
46718;BME280;32448;44.960;-0.698;2023-09-30T07:10:28;102375.25;;;16.43;100.00
46718;BME280;32448;44.960;-0.698;2023-09-30T07:12:56;102370.06;;;16.46;100.00
46718;BME280;32448;44.960;-0.698;2023-09-30T07:15:23;102362.13;;;16.46;100.00
46718;BME280;32448;44.960;-0.698;2023-09-30T07:17:51;102374.66;;;16.59;100.00
46718;BME280;32448;44.960;-0.698;2023-09-30T07:20:19;102377.47;;;16.65;100.00
46718;BME280;32448;44.960;-0.698;2023-09-30T07:22:48;102372.22;;;16.66;100.00
46718;BME280;32448;44.960;-0.698;2023-09-30T07:25:42;102375.03;;;16.77;100.00
46718;BME280;32448;44.960;-0.698;2023-09-30T07:28:11;102371.66;;;16.86;100.00
46718;BME280;32448;44.960;-0.698;2023-09-30T07:30:40;102370.84;;;16.91;100.00
46718;BME280;32448;44.960;-0.698;2023-09-30T07:33:08;102376.22;;;16.96;100.00
46718;BME280;32448;44.960;-0.698;2023-09-30T07:35:39;102373.69;;;17.03;100.00
46718;BME280;32448;44.960;-0.698;2023-09-30T07:38:06;102379.09;;;17.09;100.00
46718;BME280;32448;44.960;-0.698;2023-09-30T07:40:33;102389.84;;;17.20;100.00
46718;BME280;32448;44.960;-0.698;2023-09-30T07:46:43;102391.84;;;17.38;100.00
46718;BME280;32448;44.960;-0.698;2023-09-30T07:49:10;102399.88;;;17.42;100.00
46718;BME280;32448;44.960;-0.698;2023-09-30T07:51:38;102395.50;;;17.46;100.00
46718;BME280;32448;44.960;-0.698;2023-09-30T07:54:07;102391.22;;;17.54;100.00
46718;BME280;32448;44.960;-0.698;2023-09-30T07:56:55;102398.56;;;17.72;100.00
46718;BME280;32448;44.960;-0.698;2023-09-30T07:59:22;102408.34;;;17.80;100.00
46718;BME280;32448;44.960;-0.698;2023-09-30T08:01:49;102399.50;;;17.75;100.00
46718;BME280;32448;44.960;-0.698;2023-09-30T08:04:17;102394.16;;;17.72;100.00
46718;BME280;32448;44.960;-0.698;2023-09-30T08:06:44;102400.41;;;17.79;100.00
46718;BME280;32448;44.960;-0.698;2023-09-30T08:09:13;102404.16;;;17.95;100.00
46718;BME280;32448;44.960;-0.698;2023-09-30T08:11:40;102395.34;;;17.96;100.00
46718;BME280;32448;44.960;-0.698;2023-09-30T08:14:08;102400.75;;;18.06;100.00
46718;BME280;32448;44.960;-0.698;2023-09-30T08:16:36;102409.78;;;18.22;100.00
46718;BME280;32448;44.960;-0.698;2023-09-30T08:19:04;102400.97;;;18.22;100.00
46718;BME280;32448;44.960;-0.698;2023-09-30T08:21:32;102416.00;;;18.27;100.00
46718;BME280;32448;44.960;-0.698;2023-09-30T08:23:59;102417.72;;;18.24;100.00
46718;BME280;32448;44.960;-0.698;2023-09-30T08:26:26;102418.84;;;18.42;100.00
46718;BME280;32448;44.960;-0.698;2023-09-30T08:28:54;102408.34;;;18.51;100.00
46718;BME280;32448;44.960;-0.698;2023-09-30T08:31:21;102405.81;;;18.61;100.00
46718;BME280;32448;44.960;-0.698;2023-09-30T08:33:48;102400.41;;;18.56;100.00
46718;BME280;32448;44.960;-0.698;2023-09-30T08:36:16;102376.56;;;18.51;100.00
46718;BME280;32448;44.960;-0.698;2023-09-30T08:38:43;102396.16;;;18.69;100.00
46718;BME280;32448;44.960;-0.698;2023-09-30T08:41:11;102404.34;;;18.88;100.00
46718;BME280;32448;44.960;-0.698;2023-09-30T08:43:44;102398.06;;;18.80;100.00
46718;BME280;32448;44.960;-0.698;2023-09-30T08:46:11;102391.13;;;18.95;100.00
46718;BME280;32448;44.960;-0.698;2023-09-30T08:48:39;102397.34;;;19.01;100.00
46718;BME280;32448;44.960;-0.698;2023-09-30T08:51:07;102362.88;;;18.98;100.00
46718;BME280;32448;44.960;-0.698;2023-09-30T08:53:36;102380.72;;;19.23;100.00
46718;BME280;32448;44.960;-0.698;2023-09-30T08:56:07;102385.16;;;19.24;100.00
46718;BME280;32448;44.960;-0.698;2023-09-30T08:58:37;102382.63;;;19.40;100.00
46718;BME280;32448;44.960;-0.698;2023-09-30T09:01:05;102386.19;;;19.43;100.00
46718;BME280;32448;44.960;-0.698;2023-09-30T09:03:37;102389.72;;;19.45;100.00
46718;BME280;32448;44.960;-0.698;2023-09-30T09:06:08;102395.09;;;19.50;100.00
46718;BME280;32448;44.960;-0.698;2023-09-30T09:08:37;102386.28;;;19.58;100.00
46718;BME280;32448;44.960;-0.698;2023-09-30T09:11:07;102387.22;;;19.67;100.00
46718;BME280;32448;44.960;-0.698;2023-09-30T09:13:51;102384.69;;;19.86;100.00
46718;BME280;32448;44.960;-0.698;2023-09-30T09:16:24;102379.34;;;19.89;100.00
46718;BME280;32448;44.960;-0.698;2023-09-30T09:18:53;102377.66;;;19.97;100.00
46718;BME280;32448;44.960;-0.698;2023-09-30T09:21:21;102383.03;;;20.17;100.00
46718;BME280;32448;44.960;-0.698;2023-09-30T09:23:54;102370.63;;;20.24;100.00
46718;BME280;32448;44.960;-0.698;2023-09-30T09:26:27;102374.25;;;20.38;100.00
46718;BME280;32448;44.960;-0.698;2023-09-30T09:29:05;102376.03;;;20.50;100.00
46718;BME280;32448;44.960;-0.698;2023-09-30T09:31:38;102371.63;;;20.53;100.00
46718;BME280;32448;44.960;-0.698;2023-09-30T09:34:14;102361.84;;;20.45;100.00
46718;BME280;32448;44.960;-0.698;2023-09-30T09:36:44;102368.97;;;20.53;100.00
46718;BME280;32448;44.960;-0.698;2023-09-30T09:39:14;102378.72;;;20.69;100.00
46718;BME280;32448;44.960;-0.698;2023-09-30T09:41:53;102351.25;;;20.60;100.00
46718;BME280;32448;44.960;-0.698;2023-09-30T09:44:38;102358.34;;;21.05;100.00
46718;BME280;32448;44.960;-0.698;2023-09-30T09:47:20;102332.66;;;20.89;100.00
46718;BME280;32448;44.960;-0.698;2023-09-30T09:49:51;102312.28;;;20.91;100.00
46718;BME280;32448;44.960;-0.698;2023-09-30T09:52:25;102322.03;;;20.98;100.00
46718;BME280;32448;44.960;-0.698;2023-09-30T09:54:55;102322.91;;;21.18;100.00
46718;BME280;32448;44.960;-0.698;2023-09-30T09:57:34;102335.28;;;21.15;100.00
46718;BME280;32448;44.960;-0.698;2023-09-30T10:00:07;102310.50;;;21.20;100.00
46718;BME280;32448;44.960;-0.698;2023-09-30T10:02:41;102353.84;;;21.43;100.00
46718;BME280;32448;44.960;-0.698;2023-09-30T10:05:10;102353.00;;;21.40;100.00
46718;BME280;32448;44.960;-0.698;2023-09-30T10:07:52;102349.44;;;21.46;100.00
46718;BME280;32448;44.960;-0.698;2023-09-30T10:10:23;102352.09;;;21.49;100.00
46718;BME280;32448;44.960;-0.698;2023-09-30T10:12:52;102338.75;;;21.59;100.00
46718;BME280;32448;44.960;-0.698;2023-09-30T10:18:10;102342.25;;;21.69;100.00
46718;BME280;32448;44.960;-0.698;2023-09-30T10:20:44;102343.09;;;21.80;100.00
46718;BME280;32448;44.960;-0.698;2023-09-30T10:23:20;102347.53;;;21.84;100.00
46718;BME280;32448;44.960;-0.698;2023-09-30T10:25:49;102335.06;;;21.89;100.00
46718;BME280;32448;44.960;-0.698;2023-09-30T10:28:41;102318.03;;;22.25;100.00
46718;BME280;32448;44.960;-0.698;2023-09-30T10:31:22;102325.19;;;22.17;100.00
46718;BME280;32448;44.960;-0.698;2023-09-30T10:36:31;102308.81;;;22.67;100.00
46718;BME280;32448;44.960;-0.698;2023-09-30T10:39:02;102310.66;;;22.61;100.00
46718;BME280;32448;44.960;-0.698;2023-09-30T10:46:58;102282.78;;;22.98;100.00
46718;BME280;32448;44.960;-0.698;2023-09-30T10:49:31;102275.63;;;23.05;100.00
46718;BME280;32448;44.960;-0.698;2023-09-30T10:52:00;102285.28;;;23.13;100.00
46718;BME280;32448;44.960;-0.698;2023-09-30T10:54:30;102261.19;;;23.21;100.00
46718;BME280;32448;44.960;-0.698;2023-09-30T10:56:59;102245.88;;;23.38;100.00
46718;BME280;32448;44.960;-0.698;2023-09-30T10:59:30;102257.22;;;23.57;100.00
46718;BME280;32448;44.960;-0.698;2023-09-30T11:01:58;102251.00;;;23.56;100.00
46718;BME280;32448;44.960;-0.698;2023-09-30T11:04:29;102257.16;;;23.63;100.00
46718;BME280;32448;44.960;-0.698;2023-09-30T11:06:59;102268.34;;;23.88;100.00
46718;BME280;32448;44.960;-0.698;2023-09-30T11:09:33;102270.88;;;23.99;100.00
46718;BME280;32448;44.960;-0.698;2023-09-30T11:12:02;102258.25;;;24.08;100.00
46718;BME280;32448;44.960;-0.698;2023-09-30T11:14:31;102258.31;;;24.05;100.00
46718;BME280;32448;44.960;-0.698;2023-09-30T11:17:00;102271.53;;;24.14;100.00
46718;BME280;32448;44.960;-0.698;2023-09-30T11:19:48;102273.09;;;24.30;100.00
46718;BME280;32448;44.960;-0.698;2023-09-30T11:22:16;102263.19;;;24.37;100.00
46718;BME280;32448;44.960;-0.698;2023-09-30T11:24:44;102230.19;;;24.40;100.00
46718;BME280;32448;44.960;-0.698;2023-09-30T11:27:13;102251.38;;;24.52;100.00
46718;BME280;32448;44.960;-0.698;2023-09-30T11:29:49;102252.00;;;24.64;100.00
46718;BME280;32448;44.960;-0.698;2023-09-30T11:32:27;102249.28;;;24.67;100.00
46718;BME280;32448;44.960;-0.698;2023-09-30T11:34:56;102248.34;;;24.72;100.00
46718;BME280;32448;44.960;-0.698;2023-09-30T11:37:30;102229.31;;;24.87;100.00
46718;BME280;32448;44.960;-0.698;2023-09-30T11:40:13;102236.34;;;24.94;100.00
46718;BME280;32448;44.960;-0.698;2023-09-30T11:42:41;102239.69;;;25.07;100.00
46718;BME280;32448;44.960;-0.698;2023-09-30T11:45:20;102233.13;;;25.21;100.00
46718;BME280;32448;44.960;-0.698;2023-09-30T11:47:55;102226.59;;;25.34;100.00
46718;BME280;32448;44.960;-0.698;2023-09-30T11:50:26;102204.31;;;25.32;100.00
46718;BME280;32448;44.960;-0.698;2023-09-30T11:52:53;102225.44;;;25.48;100.00
46718;BME280;32448;44.960;-0.698;2023-09-30T11:55:20;102228.06;;;25.51;100.00
46718;BME280;32448;44.960;-0.698;2023-09-30T11:57:48;102235.88;;;25.60;100.00
46718;BME280;32448;44.960;-0.698;2023-09-30T12:00:17;102232.31;;;25.61;100.00
46718;BME280;32448;44.960;-0.698;2023-09-30T12:02:44;102218.91;;;25.59;100.00
46718;BME280;32448;44.960;-0.698;2023-09-30T12:05:12;102219.72;;;25.64;100.00
46718;BME280;32448;44.960;-0.698;2023-09-30T12:07:43;102219.31;;;25.83;100.00
46718;BME280;32448;44.960;-0.698;2023-09-30T12:10:14;102211.13;;;25.89;100.00
46718;BME280;32448;44.960;-0.698;2023-09-30T12:12:42;102211.13;;;25.89;100.00
46718;BME280;32448;44.960;-0.698;2023-09-30T12:15:12;102197.06;;;25.79;100.00
46718;BME280;32448;44.960;-0.698;2023-09-30T12:17:40;102209.19;;;25.95;100.00
46718;BME280;32448;44.960;-0.698;2023-09-30T12:20:08;102208.13;;;26.02;100.00
46718;BME280;32448;44.960;-0.698;2023-09-30T12:22:38;102185.88;;;25.99;100.00
46718;BME280;32448;44.960;-0.698;2023-09-30T12:25:05;102197.38;;;26.04;100.00
46718;BME280;32448;44.960;-0.698;2023-09-30T12:27:34;102195.44;;;26.09;100.00
46718;BME280;32448;44.960;-0.698;2023-09-30T12:30:01;102197.09;;;26.15;100.00
46718;BME280;32448;44.960;-0.698;2023-09-30T12:32:32;102180.97;;;26.16;100.00
46718;BME280;32448;44.960;-0.698;2023-09-30T12:35:00;102179.31;;;26.10;100.00
46718;BME280;32448;44.960;-0.698;2023-09-30T12:37:27;102180.00;;;26.19;100.00
46718;BME280;32448;44.960;-0.698;2023-09-30T12:39:56;102194.19;;;26.24;100.00
46718;BME280;32448;44.960;-0.698;2023-09-30T12:42:23;102183.47;;;26.24;100.00
46718;BME280;32448;44.960;-0.698;2023-09-30T12:44:51;102179.72;;;26.31;100.00
46718;BME280;32448;44.960;-0.698;2023-09-30T12:47:18;102178.19;;;26.19;100.00
46718;BME280;32448;44.960;-0.698;2023-09-30T12:49:46;102179.19;;;26.17;100.00
46718;BME280;32448;44.960;-0.698;2023-09-30T12:52:14;102173.88;;;26.14;100.00
46718;BME280;32448;44.960;-0.698;2023-09-30T12:54:41;102171.28;;;26.10;100.00
46718;BME280;32448;44.960;-0.698;2023-09-30T12:57:08;102165.88;;;26.12;100.00
46718;BME280;32448;44.960;-0.698;2023-09-30T12:59:36;102155.41;;;26.03;100.00
46718;BME280;32448;44.960;-0.698;2023-09-30T13:02:04;102175.53;;;26.19;100.00